sensor_id;sensor_type;location;lat;lon;timestamp;P1;durP1;ratioP1;P2;durP2;ratioP2
12623;SDS011;6377;42.836;23.998;2023-04-21T00:01:16;23.23;;;16.33;;
12623;SDS011;6377;42.836;23.998;2023-04-21T00:03:43;26.07;;;17.57;;
12623;SDS011;6377;42.836;23.998;2023-04-21T00:06:12;21.83;;;16.07;;
12623;SDS011;6377;42.836;23.998;2023-04-21T00:08:46;24.30;;;15.90;;
12623;SDS011;6377;42.836;23.998;2023-04-21T00:11:15;34.27;;;20.63;;
12623;SDS011;6377;42.836;23.998;2023-04-21T00:13:42;21.50;;;15.40;;
12623;SDS011;6377;42.836;23.998;2023-04-21T00:16:10;16.63;;;13.10;;
12623;SDS011;6377;42.836;23.998;2023-04-21T00:18:37;36.30;;;23.70;;
12623;SDS011;6377;42.836;23.998;2023-04-21T00:21:05;17.20;;;11.40;;
12623;SDS011;6377;42.836;23.998;2023-04-21T00:23:32;15.07;;;10.77;;
12623;SDS011;6377;42.836;23.998;2023-04-21T00:25:59;10.90;;;8.97;;
12623;SDS011;6377;42.836;23.998;2023-04-21T00:28:28;32.93;;;18.73;;
12623;SDS011;6377;42.836;23.998;2023-04-21T00:30:55;26.83;;;15.77;;
12623;SDS011;6377;42.836;23.998;2023-04-21T00:33:23;18.07;;;13.33;;
12623;SDS011;6377;42.836;23.998;2023-04-21T00:35:50;20.47;;;13.87;;
12623;SDS011;6377;42.836;23.998;2023-04-21T00:38:18;31.00;;;20.67;;
12623;SDS011;6377;42.836;23.998;2023-04-21T00:40:46;28.97;;;19.43;;
12623;SDS011;6377;42.836;23.998;2023-04-21T00:43:13;20.37;;;14.27;;
12623;SDS011;6377;42.836;23.998;2023-04-21T00:45:43;17.57;;;13.37;;
12623;SDS011;6377;42.836;23.998;2023-04-21T00:48:11;21.13;;;13.53;;
12623;SDS011;6377;42.836;23.998;2023-04-21T00:50:38;17.03;;;12.77;;
12623;SDS011;6377;42.836;23.998;2023-04-21T00:53:06;18.57;;;13.37;;
12623;SDS011;6377;42.836;23.998;2023-04-21T00:55:35;20.73;;;13.43;;
12623;SDS011;6377;42.836;23.998;2023-04-21T00:58:03;16.53;;;11.57;;
12623;SDS011;6377;42.836;23.998;2023-04-21T01:00:30;13.77;;;10.87;;
12623;SDS011;6377;42.836;23.998;2023-04-21T01:03:00;11.90;;;9.63;;
12623;SDS011;6377;42.836;23.998;2023-04-21T01:05:27;13.20;;;9.87;;
12623;SDS011;6377;42.836;23.998;2023-04-21T01:07:54;15.20;;;11.07;;
12623;SDS011;6377;42.836;23.998;2023-04-21T01:10:22;17.57;;;10.93;;
12623;SDS011;6377;42.836;23.998;2023-04-21T01:12:49;13.40;;;11.20;;
12623;SDS011;6377;42.836;23.998;2023-04-21T01:15:16;11.60;;;9.83;;
12623;SDS011;6377;42.836;23.998;2023-04-21T01:17:44;11.93;;;9.30;;
12623;SDS011;6377;42.836;23.998;2023-04-21T01:20:13;15.80;;;10.10;;
12623;SDS011;6377;42.836;23.998;2023-04-21T01:22:42;12.37;;;10.07;;
12623;SDS011;6377;42.836;23.998;2023-04-21T01:25:11;13.67;;;11.30;;
12623;SDS011;6377;42.836;23.998;2023-04-21T01:27:38;34.80;;;14.77;;
12623;SDS011;6377;42.836;23.998;2023-04-21T01:30:06;37.23;;;14.80;;
12623;SDS011;6377;42.836;23.998;2023-04-21T01:32:34;31.30;;;14.80;;
12623;SDS011;6377;42.836;23.998;2023-04-21T01:35:01;25.00;;;15.40;;
12623;SDS011;6377;42.836;23.998;2023-04-21T01:37:31;46.60;;;16.50;;
12623;SDS011;6377;42.836;23.998;2023-04-21T01:40:01;36.93;;;15.30;;
12623;SDS011;6377;42.836;23.998;2023-04-21T01:42:31;17.60;;;11.87;;
12623;SDS011;6377;42.836;23.998;2023-04-21T01:44:59;22.33;;;15.53;;
12623;SDS011;6377;42.836;23.998;2023-04-21T01:47:26;19.63;;;12.73;;
12623;SDS011;6377;42.836;23.998;2023-04-21T01:49:53;54.83;;;30.93;;
12623;SDS011;6377;42.836;23.998;2023-04-21T01:52:20;20.83;;;13.57;;
12623;SDS011;6377;42.836;23.998;2023-04-21T01:54:48;11.37;;;8.27;;
12623;SDS011;6377;42.836;23.998;2023-04-21T01:57:17;11.47;;;8.17;;
12623;SDS011;6377;42.836;23.998;2023-04-21T01:59:44;8.50;;;7.20;;
12623;SDS011;6377;42.836;23.998;2023-04-21T02:02:11;8.33;;;6.73;;
12623;SDS011;6377;42.836;23.998;2023-04-21T02:04:38;7.67;;;6.73;;
12623;SDS011;6377;42.836;23.998;2023-04-21T02:07:05;8.07;;;6.97;;
12623;SDS011;6377;42.836;23.998;2023-04-21T02:09:33;15.30;;;9.50;;
12623;SDS011;6377;42.836;23.998;2023-04-21T02:12:00;16.80;;;12.40;;
12623;SDS011;6377;42.836;23.998;2023-04-21T02:14:29;18.53;;;12.20;;
12623;SDS011;6377;42.836;23.998;2023-04-21T02:16:56;17.20;;;11.57;;
12623;SDS011;6377;42.836;23.998;2023-04-21T02:19:24;17.93;;;12.63;;
12623;SDS011;6377;42.836;23.998;2023-04-21T02:21:51;23.17;;;13.20;;
12623;SDS011;6377;42.836;23.998;2023-04-21T02:24:18;17.63;;;13.03;;
12623;SDS011;6377;42.836;23.998;2023-04-21T02:26:45;22.63;;;14.23;;
12623;SDS011;6377;42.836;23.998;2023-04-21T02:29:13;44.40;;;17.80;;
12623;SDS011;6377;42.836;23.998;2023-04-21T02:31:42;38.70;;;18.77;;
12623;SDS011;6377;42.836;23.998;2023-04-21T02:34:09;32.47;;;14.30;;
12623;SDS011;6377;42.836;23.998;2023-04-21T02:36:36;44.23;;;15.00;;
12623;SDS011;6377;42.836;23.998;2023-04-21T02:39:04;28.20;;;11.67;;
12623;SDS011;6377;42.836;23.998;2023-04-21T02:41:31;43.97;;;11.83;;
12623;SDS011;6377;42.836;23.998;2023-04-21T02:43:58;22.47;;;11.57;;
12623;SDS011;6377;42.836;23.998;2023-04-21T02:46:25;19.70;;;11.63;;
12623;SDS011;6377;42.836;23.998;2023-04-21T02:48:54;17.80;;;12.53;;
12623;SDS011;6377;42.836;23.998;2023-04-21T02:51:21;19.57;;;12.10;;
12623;SDS011;6377;42.836;23.998;2023-04-21T02:53:49;32.53;;;21.67;;
12623;SDS011;6377;42.836;23.998;2023-04-21T02:56:16;26.93;;;17.93;;
12623;SDS011;6377;42.836;23.998;2023-04-21T02:58:44;22.57;;;16.53;;
12623;SDS011;6377;42.836;23.998;2023-04-21T03:01:11;25.67;;;13.53;;
12623;SDS011;6377;42.836;23.998;2023-04-21T03:03:39;52.67;;;43.13;;
12623;SDS011;6377;42.836;23.998;2023-04-21T03:06:07;23.27;;;14.70;;
12623;SDS011;6377;42.836;23.998;2023-04-21T03:08:35;20.97;;;13.37;;
12623;SDS011;6377;42.836;23.998;2023-04-21T03:11:02;15.83;;;11.63;;
12623;SDS011;6377;42.836;23.998;2023-04-21T03:13:29;16.87;;;12.23;;
12623;SDS011;6377;42.836;23.998;2023-04-21T03:15:56;16.20;;;12.23;;
12623;SDS011;6377;42.836;23.998;2023-04-21T03:18:24;21.27;;;13.97;;
12623;SDS011;6377;42.836;23.998;2023-04-21T03:20:52;16.67;;;12.90;;
12623;SDS011;6377;42.836;23.998;2023-04-21T03:23:27;18.13;;;12.23;;
12623;SDS011;6377;42.836;23.998;2023-04-21T03:25:54;17.33;;;13.13;;
12623;SDS011;6377;42.836;23.998;2023-04-21T03:28:22;28.50;;;22.03;;
12623;SDS011;6377;42.836;23.998;2023-04-21T03:30:49;29.53;;;20.53;;
12623;SDS011;6377;42.836;23.998;2023-04-21T03:33:16;24.80;;;17.67;;
12623;SDS011;6377;42.836;23.998;2023-04-21T03:35:44;17.17;;;14.00;;
12623;SDS011;6377;42.836;23.998;2023-04-21T03:38:11;18.40;;;14.53;;
12623;SDS011;6377;42.836;23.998;2023-04-21T03:40:39;25.97;;;18.50;;
12623;SDS011;6377;42.836;23.998;2023-04-21T03:43:06;27.70;;;19.53;;
12623;SDS011;6377;42.836;23.998;2023-04-21T03:45:34;30.97;;;19.63;;
12623;SDS011;6377;42.836;23.998;2023-04-21T03:48:01;29.37;;;19.70;;
12623;SDS011;6377;42.836;23.998;2023-04-21T03:50:29;39.73;;;28.30;;
12623;SDS011;6377;42.836;23.998;2023-04-21T03:52:57;31.20;;;22.03;;
12623;SDS011;6377;42.836;23.998;2023-04-21T03:55:24;27.87;;;19.03;;
12623;SDS011;6377;42.836;23.998;2023-04-21T03:57:53;26.47;;;19.03;;
12623;SDS011;6377;42.836;23.998;2023-04-21T04:00:21;25.70;;;17.47;;
12623;SDS011;6377;42.836;23.998;2023-04-21T04:02:48;20.87;;;14.30;;
12623;SDS011;6377;42.836;23.998;2023-04-21T04:05:15;34.00;;;22.73;;
12623;SDS011;6377;42.836;23.998;2023-04-21T04:07:42;31.63;;;19.60;;
12623;SDS011;6377;42.836;23.998;2023-04-21T04:10:11;28.00;;;19.70;;
12623;SDS011;6377;42.836;23.998;2023-04-21T04:12:38;21.83;;;14.40;;
12623;SDS011;6377;42.836;23.998;2023-04-21T04:15:07;23.47;;;16.23;;
12623;SDS011;6377;42.836;23.998;2023-04-21T04:17:34;24.83;;;18.00;;
12623;SDS011;6377;42.836;23.998;2023-04-21T04:20:02;27.50;;;19.00;;
12623;SDS011;6377;42.836;23.998;2023-04-21T04:22:30;30.70;;;21.13;;
12623;SDS011;6377;42.836;23.998;2023-04-21T04:24:58;28.97;;;21.77;;
12623;SDS011;6377;42.836;23.998;2023-04-21T04:27:25;29.87;;;23.13;;
12623;SDS011;6377;42.836;23.998;2023-04-21T04:29:52;29.73;;;22.83;;
12623;SDS011;6377;42.836;23.998;2023-04-21T04:32:21;24.53;;;18.37;;
12623;SDS011;6377;42.836;23.998;2023-04-21T04:34:52;30.10;;;20.80;;
12623;SDS011;6377;42.836;23.998;2023-04-21T04:37:21;37.17;;;22.07;;
12623;SDS011;6377;42.836;23.998;2023-04-21T04:39:51;38.63;;;26.70;;
12623;SDS011;6377;42.836;23.998;2023-04-21T04:42:19;27.70;;;19.70;;
12623;SDS011;6377;42.836;23.998;2023-04-21T04:44:46;27.43;;;18.27;;
12623;SDS011;6377;42.836;23.998;2023-04-21T04:47:13;25.63;;;19.27;;
12623;SDS011;6377;42.836;23.998;2023-04-21T04:49:42;27.57;;;20.10;;
12623;SDS011;6377;42.836;23.998;2023-04-21T04:52:10;31.17;;;23.73;;
12623;SDS011;6377;42.836;23.998;2023-04-21T04:54:37;33.63;;;23.90;;
12623;SDS011;6377;42.836;23.998;2023-04-21T04:57:04;49.20;;;35.13;;
12623;SDS011;6377;42.836;23.998;2023-04-21T04:59:32;55.63;;;36.30;;
12623;SDS011;6377;42.836;23.998;2023-04-21T05:02:00;55.33;;;38.40;;
12623;SDS011;6377;42.836;23.998;2023-04-21T05:04:28;51.73;;;34.73;;
12623;SDS011;6377;42.836;23.998;2023-04-21T05:06:57;39.10;;;27.00;;
12623;SDS011;6377;42.836;23.998;2023-04-21T05:09:24;29.73;;;21.43;;
12623;SDS011;6377;42.836;23.998;2023-04-21T05:11:52;30.90;;;20.60;;
12623;SDS011;6377;42.836;23.998;2023-04-21T05:14:19;28.60;;;19.93;;
12623;SDS011;6377;42.836;23.998;2023-04-21T05:16:46;27.93;;;20.93;;
12623;SDS011;6377;42.836;23.998;2023-04-21T05:19:13;34.67;;;24.47;;
12623;SDS011;6377;42.836;23.998;2023-04-21T05:21:40;39.77;;;29.43;;
12623;SDS011;6377;42.836;23.998;2023-04-21T05:24:09;47.53;;;33.70;;
12623;SDS011;6377;42.836;23.998;2023-04-21T05:26:36;45.70;;;30.93;;
12623;SDS011;6377;42.836;23.998;2023-04-21T05:29:03;38.93;;;28.97;;
12623;SDS011;6377;42.836;23.998;2023-04-21T05:31:31;39.43;;;28.33;;
12623;SDS011;6377;42.836;23.998;2023-04-21T05:33:59;49.67;;;34.90;;
12623;SDS011;6377;42.836;23.998;2023-04-21T05:36:26;63.77;;;39.03;;
12623;SDS011;6377;42.836;23.998;2023-04-21T05:38:54;39.77;;;26.47;;
12623;SDS011;6377;42.836;23.998;2023-04-21T05:41:23;35.43;;;26.20;;
12623;SDS011;6377;42.836;23.998;2023-04-21T05:43:50;38.23;;;28.13;;
12623;SDS011;6377;42.836;23.998;2023-04-21T05:46:17;44.23;;;31.30;;
12623;SDS011;6377;42.836;23.998;2023-04-21T05:48:44;36.33;;;27.27;;
12623;SDS011;6377;42.836;23.998;2023-04-21T05:51:12;34.93;;;25.87;;
12623;SDS011;6377;42.836;23.998;2023-04-21T05:53:41;30.20;;;22.63;;
12623;SDS011;6377;42.836;23.998;2023-04-21T05:56:08;31.23;;;24.00;;
12623;SDS011;6377;42.836;23.998;2023-04-21T05:58:37;41.30;;;29.77;;
12623;SDS011;6377;42.836;23.998;2023-04-21T06:01:06;46.73;;;33.67;;
12623;SDS011;6377;42.836;23.998;2023-04-21T06:03:33;46.87;;;34.00;;
12623;SDS011;6377;42.836;23.998;2023-04-21T06:06:01;39.67;;;28.97;;
12623;SDS011;6377;42.836;23.998;2023-04-21T06:08:29;37.70;;;29.80;;
12623;SDS011;6377;42.836;23.998;2023-04-21T06:10:56;40.17;;;30.93;;
12623;SDS011;6377;42.836;23.998;2023-04-21T06:13:23;45.43;;;33.00;;
12623;SDS011;6377;42.836;23.998;2023-04-21T06:15:56;44.67;;;34.07;;
12623;SDS011;6377;42.836;23.998;2023-04-21T06:18:25;48.40;;;36.27;;
12623;SDS011;6377;42.836;23.998;2023-04-21T06:20:53;57.23;;;43.77;;
12623;SDS011;6377;42.836;23.998;2023-04-21T06:23:20;47.60;;;35.57;;
12623;SDS011;6377;42.836;23.998;2023-04-21T06:25:57;48.67;;;34.70;;
12623;SDS011;6377;42.836;23.998;2023-04-21T06:28:26;55.33;;;38.83;;
12623;SDS011;6377;42.836;23.998;2023-04-21T06:30:53;54.60;;;38.40;;
12623;SDS011;6377;42.836;23.998;2023-04-21T06:33:22;53.97;;;38.27;;
12623;SDS011;6377;42.836;23.998;2023-04-21T06:35:49;52.20;;;38.13;;
12623;SDS011;6377;42.836;23.998;2023-04-21T06:38:16;52.53;;;38.60;;
12623;SDS011;6377;42.836;23.998;2023-04-21T06:40:43;63.27;;;48.27;;
12623;SDS011;6377;42.836;23.998;2023-04-21T06:43:11;51.63;;;40.97;;
12623;SDS011;6377;42.836;23.998;2023-04-21T06:45:38;46.60;;;31.20;;
12623;SDS011;6377;42.836;23.998;2023-04-21T06:48:05;47.20;;;35.83;;
12623;SDS011;6377;42.836;23.998;2023-04-21T06:50:34;53.50;;;38.00;;
12623;SDS011;6377;42.836;23.998;2023-04-21T06:53:01;37.40;;;28.30;;
12623;SDS011;6377;42.836;23.998;2023-04-21T06:55:28;28.73;;;21.70;;
12623;SDS011;6377;42.836;23.998;2023-04-21T06:57:55;28.23;;;20.53;;
12623;SDS011;6377;42.836;23.998;2023-04-21T07:00:22;22.23;;;17.97;;
12623;SDS011;6377;42.836;23.998;2023-04-21T07:02:49;20.93;;;16.97;;
12623;SDS011;6377;42.836;23.998;2023-04-21T07:05:16;27.27;;;21.97;;
12623;SDS011;6377;42.836;23.998;2023-04-21T07:07:45;26.77;;;19.93;;
12623;SDS011;6377;42.836;23.998;2023-04-21T07:10:12;26.17;;;19.90;;
12623;SDS011;6377;42.836;23.998;2023-04-21T07:12:43;26.03;;;18.73;;
12623;SDS011;6377;42.836;23.998;2023-04-21T07:15:10;24.47;;;17.70;;
12623;SDS011;6377;42.836;23.998;2023-04-21T07:17:38;20.80;;;15.57;;
12623;SDS011;6377;42.836;23.998;2023-04-21T07:20:05;20.50;;;13.87;;
12623;SDS011;6377;42.836;23.998;2023-04-21T07:22:33;19.53;;;14.40;;
12623;SDS011;6377;42.836;23.998;2023-04-21T07:25:03;11.00;;;8.63;;
12623;SDS011;6377;42.836;23.998;2023-04-21T07:27:31;9.67;;;6.70;;
12623;SDS011;6377;42.836;23.998;2023-04-21T07:29:58;8.73;;;7.13;;
12623;SDS011;6377;42.836;23.998;2023-04-21T07:32:25;11.97;;;9.27;;
12623;SDS011;6377;42.836;23.998;2023-04-21T07:34:52;12.20;;;9.67;;
12623;SDS011;6377;42.836;23.998;2023-04-21T07:37:20;12.63;;;8.93;;
12623;SDS011;6377;42.836;23.998;2023-04-21T07:39:47;12.57;;;8.63;;
12623;SDS011;6377;42.836;23.998;2023-04-21T07:42:16;11.97;;;8.47;;
12623;SDS011;6377;42.836;23.998;2023-04-21T07:44:46;10.60;;;8.00;;
12623;SDS011;6377;42.836;23.998;2023-04-21T07:47:14;11.87;;;8.17;;
12623;SDS011;6377;42.836;23.998;2023-04-21T07:49:42;9.43;;;7.10;;
12623;SDS011;6377;42.836;23.998;2023-04-21T07:52:10;9.30;;;6.27;;
12623;SDS011;6377;42.836;23.998;2023-04-21T07:54:37;9.57;;;6.50;;
12623;SDS011;6377;42.836;23.998;2023-04-21T07:57:04;8.80;;;5.37;;
12623;SDS011;6377;42.836;23.998;2023-04-21T07:59:33;7.90;;;5.80;;
12623;SDS011;6377;42.836;23.998;2023-04-21T08:02:00;6.63;;;4.80;;
12623;SDS011;6377;42.836;23.998;2023-04-21T08:04:27;7.07;;;5.77;;
12623;SDS011;6377;42.836;23.998;2023-04-21T08:06:55;6.03;;;4.70;;
12623;SDS011;6377;42.836;23.998;2023-04-21T08:09:22;5.30;;;4.60;;
12623;SDS011;6377;42.836;23.998;2023-04-21T08:11:49;5.97;;;4.90;;
12623;SDS011;6377;42.836;23.998;2023-04-21T08:14:16;17.30;;;10.23;;
12623;SDS011;6377;42.836;23.998;2023-04-21T08:16:45;7.33;;;6.10;;
12623;SDS011;6377;42.836;23.998;2023-04-21T08:19:12;8.70;;;5.77;;
12623;SDS011;6377;42.836;23.998;2023-04-21T08:21:40;7.67;;;5.23;;
12623;SDS011;6377;42.836;23.998;2023-04-21T08:24:07;8.13;;;5.20;;
12623;SDS011;6377;42.836;23.998;2023-04-21T08:26:34;7.13;;;5.13;;
12623;SDS011;6377;42.836;23.998;2023-04-21T08:29:01;6.30;;;5.20;;
12623;SDS011;6377;42.836;23.998;2023-04-21T08:31:31;7.17;;;5.30;;
12623;SDS011;6377;42.836;23.998;2023-04-21T08:34:00;8.47;;;6.50;;
12623;SDS011;6377;42.836;23.998;2023-04-21T08:36:27;7.53;;;6.20;;
12623;SDS011;6377;42.836;23.998;2023-04-21T08:38:54;5.37;;;4.20;;
12623;SDS011;6377;42.836;23.998;2023-04-21T08:41:22;5.13;;;4.53;;
12623;SDS011;6377;42.836;23.998;2023-04-21T08:43:50;11.87;;;5.40;;
12623;SDS011;6377;42.836;23.998;2023-04-21T08:46:17;8.10;;;4.80;;
12623;SDS011;6377;42.836;23.998;2023-04-21T08:48:45;8.70;;;5.13;;
12623;SDS011;6377;42.836;23.998;2023-04-21T08:51:17;6.67;;;4.40;;
12623;SDS011;6377;42.836;23.998;2023-04-21T08:53:47;9.00;;;5.27;;
12623;SDS011;6377;42.836;23.998;2023-04-21T08:56:15;6.57;;;5.13;;
12623;SDS011;6377;42.836;23.998;2023-04-21T08:58:42;10.27;;;6.03;;
12623;SDS011;6377;42.836;23.998;2023-04-21T09:01:09;6.50;;;5.70;;
12623;SDS011;6377;42.836;23.998;2023-04-21T09:03:36;10.87;;;5.80;;
12623;SDS011;6377;42.836;23.998;2023-04-21T09:06:04;6.70;;;4.80;;
12623;SDS011;6377;42.836;23.998;2023-04-21T09:08:36;20.97;;;10.83;;
12623;SDS011;6377;42.836;23.998;2023-04-21T09:11:04;8.47;;;6.03;;
12623;SDS011;6377;42.836;23.998;2023-04-21T09:13:32;7.30;;;5.37;;
12623;SDS011;6377;42.836;23.998;2023-04-21T09:16:01;7.30;;;5.43;;
12623;SDS011;6377;42.836;23.998;2023-04-21T09:18:30;8.13;;;5.37;;
12623;SDS011;6377;42.836;23.998;2023-04-21T09:21:08;7.70;;;4.73;;
12623;SDS011;6377;42.836;23.998;2023-04-21T09:23:44;7.40;;;6.37;;
12623;SDS011;6377;42.836;23.998;2023-04-21T09:26:13;8.43;;;5.27;;
12623;SDS011;6377;42.836;23.998;2023-04-21T09:28:41;6.93;;;5.90;;
12623;SDS011;6377;42.836;23.998;2023-04-21T09:31:12;6.77;;;5.83;;
12623;SDS011;6377;42.836;23.998;2023-04-21T09:33:44;5.90;;;5.30;;
12623;SDS011;6377;42.836;23.998;2023-04-21T09:36:18;8.90;;;5.57;;
12623;SDS011;6377;42.836;23.998;2023-04-21T09:38:49;6.23;;;5.23;;
12623;SDS011;6377;42.836;23.998;2023-04-21T09:41:21;5.30;;;4.60;;
12623;SDS011;6377;42.836;23.998;2023-04-21T09:43:49;8.67;;;6.13;;
12623;SDS011;6377;42.836;23.998;2023-04-21T09:46:16;9.83;;;6.67;;
12623;SDS011;6377;42.836;23.998;2023-04-21T09:48:45;5.67;;;5.10;;
12623;SDS011;6377;42.836;23.998;2023-04-21T09:51:13;7.03;;;5.53;;
12623;SDS011;6377;42.836;23.998;2023-04-21T09:53:43;6.43;;;5.53;;
12623;SDS011;6377;42.836;23.998;2023-04-21T09:56:13;6.13;;;4.67;;
12623;SDS011;6377;42.836;23.998;2023-04-21T09:58:45;4.67;;;4.07;;
12623;SDS011;6377;42.836;23.998;2023-04-21T10:01:14;5.43;;;4.93;;
12623;SDS011;6377;42.836;23.998;2023-04-21T10:03:42;9.37;;;6.90;;
12623;SDS011;6377;42.836;23.998;2023-04-21T10:06:10;7.27;;;5.30;;
12623;SDS011;6377;42.836;23.998;2023-04-21T10:08:38;6.13;;;5.53;;
12623;SDS011;6377;42.836;23.998;2023-04-21T10:11:05;9.20;;;6.50;;
12623;SDS011;6377;42.836;23.998;2023-04-21T10:13:36;8.00;;;6.53;;
12623;SDS011;6377;42.836;23.998;2023-04-21T10:16:04;9.00;;;5.23;;
12623;SDS011;6377;42.836;23.998;2023-04-21T10:18:33;8.37;;;5.30;;
12623;SDS011;6377;42.836;23.998;2023-04-21T10:21:03;6.50;;;4.53;;
12623;SDS011;6377;42.836;23.998;2023-04-21T10:23:35;6.57;;;4.63;;
12623;SDS011;6377;42.836;23.998;2023-04-21T10:26:04;5.93;;;4.00;;
12623;SDS011;6377;42.836;23.998;2023-04-21T10:28:44;5.70;;;4.63;;
12623;SDS011;6377;42.836;23.998;2023-04-21T10:31:16;6.60;;;4.60;;
12623;SDS011;6377;42.836;23.998;2023-04-21T10:39:54;5.93;;;4.40;;
12623;SDS011;6377;42.836;23.998;2023-04-21T10:42:28;12.07;;;8.83;;
12623;SDS011;6377;42.836;23.998;2023-04-21T10:45:09;29.20;;;13.83;;
12623;SDS011;6377;42.836;23.998;2023-04-21T10:47:38;9.20;;;5.60;;
12623;SDS011;6377;42.836;23.998;2023-04-21T10:50:15;6.97;;;4.73;;
12623;SDS011;6377;42.836;23.998;2023-04-21T10:52:52;6.33;;;4.53;;
12623;SDS011;6377;42.836;23.998;2023-04-21T10:55:21;6.07;;;4.63;;
12623;SDS011;6377;42.836;23.998;2023-04-21T10:57:52;17.97;;;10.40;;
12623;SDS011;6377;42.836;23.998;2023-04-21T11:00:22;9.73;;;7.53;;
12623;SDS011;6377;42.836;23.998;2023-04-21T11:02:56;5.50;;;4.60;;
12623;SDS011;6377;42.836;23.998;2023-04-21T11:05:28;4.40;;;3.87;;
12623;SDS011;6377;42.836;23.998;2023-04-21T11:08:02;6.07;;;5.05;;
12623;SDS011;6377;42.836;23.998;2023-04-21T11:10:40;6.33;;;4.73;;
12623;SDS011;6377;42.836;23.998;2023-04-21T11:13:25;4.90;;;3.90;;
12623;SDS011;6377;42.836;23.998;2023-04-21T11:15:59;6.70;;;4.75;;
12623;SDS011;6377;42.836;23.998;2023-04-21T11:18:31;5.40;;;4.30;;
12623;SDS011;6377;42.836;23.998;2023-04-21T11:21:08;8.18;;;4.65;;
12623;SDS011;6377;42.836;23.998;2023-04-21T11:23:40;6.15;;;4.28;;
12623;SDS011;6377;42.836;23.998;2023-04-21T11:26:13;7.80;;;4.97;;
12623;SDS011;6377;42.836;23.998;2023-04-21T11:28:40;5.05;;;4.47;;
12623;SDS011;6377;42.836;23.998;2023-04-21T11:31:09;6.32;;;4.90;;
12623;SDS011;6377;42.836;23.998;2023-04-21T11:33:36;6.73;;;4.47;;
12623;SDS011;6377;42.836;23.998;2023-04-21T11:36:04;5.60;;;5.10;;
12623;SDS011;6377;42.836;23.998;2023-04-21T11:38:36;5.27;;;4.17;;
12623;SDS011;6377;42.836;23.998;2023-04-21T11:41:04;5.47;;;4.53;;
12623;SDS011;6377;42.836;23.998;2023-04-21T11:43:31;7.37;;;4.50;;
12623;SDS011;6377;42.836;23.998;2023-04-21T11:46:15;5.97;;;4.67;;
12623;SDS011;6377;42.836;23.998;2023-04-21T11:48:43;5.03;;;4.47;;
12623;SDS011;6377;42.836;23.998;2023-04-21T11:51:14;4.87;;;4.27;;
12623;SDS011;6377;42.836;23.998;2023-04-21T11:53:42;5.80;;;4.40;;
12623;SDS011;6377;42.836;23.998;2023-04-21T11:56:15;4.93;;;4.43;;
12623;SDS011;6377;42.836;23.998;2023-04-21T11:58:44;5.27;;;4.07;;
12623;SDS011;6377;42.836;23.998;2023-04-21T12:01:15;4.97;;;4.50;;
12623;SDS011;6377;42.836;23.998;2023-04-21T12:03:49;5.13;;;4.47;;
12623;SDS011;6377;42.836;23.998;2023-04-21T12:06:20;8.33;;;6.13;;
12623;SDS011;6377;42.836;23.998;2023-04-21T12:08:51;4.87;;;4.37;;
12623;SDS011;6377;42.836;23.998;2023-04-21T12:11:21;5.77;;;4.43;;
12623;SDS011;6377;42.836;23.998;2023-04-21T12:13:49;3.70;;;3.40;;
12623;SDS011;6377;42.836;23.998;2023-04-21T12:16:18;5.60;;;3.00;;
12623;SDS011;6377;42.836;23.998;2023-04-21T12:18:46;4.03;;;3.40;;
12623;SDS011;6377;42.836;23.998;2023-04-21T12:21:14;5.13;;;3.60;;
12623;SDS011;6377;42.836;23.998;2023-04-21T12:23:41;3.70;;;3.40;;
12623;SDS011;6377;42.836;23.998;2023-04-21T12:26:10;4.73;;;3.97;;
12623;SDS011;6377;42.836;23.998;2023-04-21T12:28:37;5.63;;;3.87;;
12623;SDS011;6377;42.836;23.998;2023-04-21T12:31:04;11.27;;;8.03;;
12623;SDS011;6377;42.836;23.998;2023-04-21T12:33:33;7.20;;;5.60;;
12623;SDS011;6377;42.836;23.998;2023-04-21T12:36:00;8.97;;;5.90;;
12623;SDS011;6377;42.836;23.998;2023-04-21T12:38:27;6.03;;;5.43;;
12623;SDS011;6377;42.836;23.998;2023-04-21T12:40:55;5.30;;;4.60;;
12623;SDS011;6377;42.836;23.998;2023-04-21T12:43:22;8.87;;;6.03;;
12623;SDS011;6377;42.836;23.998;2023-04-21T12:45:49;6.93;;;5.17;;
12623;SDS011;6377;42.836;23.998;2023-04-21T12:48:17;8.97;;;6.37;;
12623;SDS011;6377;42.836;23.998;2023-04-21T12:50:46;13.83;;;10.97;;
12623;SDS011;6377;42.836;23.998;2023-04-21T12:53:13;13.90;;;10.77;;
12623;SDS011;6377;42.836;23.998;2023-04-21T12:55:40;10.10;;;7.47;;
12623;SDS011;6377;42.836;23.998;2023-04-21T12:58:08;27.40;;;18.57;;
12623;SDS011;6377;42.836;23.998;2023-04-21T13:00:36;94.97;;;43.33;;
12623;SDS011;6377;42.836;23.998;2023-04-21T13:03:04;29.83;;;15.53;;
12623;SDS011;6377;42.836;23.998;2023-04-21T13:05:31;16.90;;;12.60;;
12623;SDS011;6377;42.836;23.998;2023-04-21T13:08:00;21.70;;;16.67;;
12623;SDS011;6377;42.836;23.998;2023-04-21T13:10:27;12.53;;;10.97;;
12623;SDS011;6377;42.836;23.998;2023-04-21T13:12:54;14.57;;;11.77;;
12623;SDS011;6377;42.836;23.998;2023-04-21T13:15:22;15.83;;;12.30;;
12623;SDS011;6377;42.836;23.998;2023-04-21T13:17:49;19.03;;;12.27;;
12623;SDS011;6377;42.836;23.998;2023-04-21T13:20:16;15.03;;;11.83;;
12623;SDS011;6377;42.836;23.998;2023-04-21T13:22:44;18.00;;;12.67;;
12623;SDS011;6377;42.836;23.998;2023-04-21T13:25:13;12.33;;;8.53;;
12623;SDS011;6377;42.836;23.998;2023-04-21T13:27:40;14.90;;;11.57;;
12623;SDS011;6377;42.836;23.998;2023-04-21T13:30:09;11.40;;;9.23;;
12623;SDS011;6377;42.836;23.998;2023-04-21T13:32:37;12.63;;;11.07;;
12623;SDS011;6377;42.836;23.998;2023-04-21T13:35:05;18.97;;;14.17;;
12623;SDS011;6377;42.836;23.998;2023-04-21T13:37:35;19.50;;;12.40;;
12623;SDS011;6377;42.836;23.998;2023-04-21T13:40:02;11.33;;;8.63;;
12623;SDS011;6377;42.836;23.998;2023-04-21T13:42:32;13.77;;;11.67;;
12623;SDS011;6377;42.836;23.998;2023-04-21T13:44:59;27.40;;;19.63;;
12623;SDS011;6377;42.836;23.998;2023-04-21T13:47:28;37.60;;;25.13;;
12623;SDS011;6377;42.836;23.998;2023-04-21T13:49:55;56.53;;;31.20;;
12623;SDS011;6377;42.836;23.998;2023-04-21T13:52:23;10.97;;;8.80;;
12623;SDS011;6377;42.836;23.998;2023-04-21T13:54:50;109.93;;;62.73;;
12623;SDS011;6377;42.836;23.998;2023-04-21T13:57:18;28.50;;;19.40;;
12623;SDS011;6377;42.836;23.998;2023-04-21T13:59:47;95.80;;;52.93;;
12623;SDS011;6377;42.836;23.998;2023-04-21T14:02:15;25.90;;;16.30;;
12623;SDS011;6377;42.836;23.998;2023-04-21T14:04:42;20.40;;;13.67;;
12623;SDS011;6377;42.836;23.998;2023-04-21T14:07:09;16.77;;;12.63;;
12623;SDS011;6377;42.836;23.998;2023-04-21T14:09:39;7.73;;;6.83;;
12623;SDS011;6377;42.836;23.998;2023-04-21T14:12:06;15.27;;;11.37;;
12623;SDS011;6377;42.836;23.998;2023-04-21T14:14:34;128.53;;;70.03;;
12623;SDS011;6377;42.836;23.998;2023-04-21T14:17:03;40.63;;;26.23;;
12623;SDS011;6377;42.836;23.998;2023-04-21T14:19:30;21.33;;;15.80;;
12623;SDS011;6377;42.836;23.998;2023-04-21T14:21:57;20.60;;;17.63;;
12623;SDS011;6377;42.836;23.998;2023-04-21T14:24:24;12.07;;;9.83;;
12623;SDS011;6377;42.836;23.998;2023-04-21T14:26:53;10.97;;;8.70;;
12623;SDS011;6377;42.836;23.998;2023-04-21T14:29:20;11.40;;;10.00;;
12623;SDS011;6377;42.836;23.998;2023-04-21T14:31:48;10.87;;;7.57;;
12623;SDS011;6377;42.836;23.998;2023-04-21T14:34:19;13.17;;;11.00;;
12623;SDS011;6377;42.836;23.998;2023-04-21T14:36:46;8.00;;;7.00;;
12623;SDS011;6377;42.836;23.998;2023-04-21T14:39:14;9.93;;;8.93;;
12623;SDS011;6377;42.836;23.998;2023-04-21T14:41:41;11.50;;;10.40;;
12623;SDS011;6377;42.836;23.998;2023-04-21T14:44:08;11.05;;;9.57;;